Time;durP1;ratioP1;P1;durP2;ratioP2;P2;SDS_P1;SDS_P2;PMS_P1;PMS_P2;Temp;Humidity;BMP_temperature;BMP_pressure;BME280_temperature;BME280_humidity;BME280_pressure;Samples;Min_cycle;Max_cycle;Signal;HPM_P1;HPM_P2
2023/01/11 00:02:08;;;;;;;39.65;4.80;;;;;;;5.41;100.00;98164.03;5000887;28;20038;-57
2023/01/11 00:04:34;;;;;;;47.00;4.63;;;;;;;5.44;100.00;98153.78;5001655;28;20030;-55
2023/01/11 00:06:59;;;;;;;48.13;5.65;;;;;;;5.65;100.00;98154.16;4999885;28;20909;-54
2023/01/11 00:09:24;;;;;;;42.70;5.35;;;;;;;5.46;100.00;98159.81;5001386;28;20630;-55
2023/01/11 00:11:50;;;;;;;64.68;6.65;;;;;;;5.66;100.00;98161.06;5000592;28;20042;-55
2023/01/11 00:14:15;;;;;;;42.22;5.40;;;;;;;5.67;100.00;98166.25;5001713;28;20033;-55
2023/01/11 00:16:40;;;;;;;46.33;5.90;;;;;;;5.46;100.00;98157.25;5000472;28;20041;-56
2023/01/11 00:19:06;;;;;;;53.33;5.82;;;;;;;5.19;100.00;98165.28;5000826;28;20036;-52
2023/01/11 00:21:32;;;;;;;48.78;5.63;;;;;;;5.63;100.00;98158.41;5000050;28;20036;-53
2023/01/11 00:23:57;;;;;;;57.50;6.22;;;;;;;5.69;100.00;98162.00;5000661;28;20140;-53
2023/01/11 00:26:23;;;;;;;45.25;5.70;;;;;;;5.85;100.00;98164.84;4998823;28;20585;-55
2023/01/11 00:28:49;;;;;;;52.45;5.82;;;;;;;6.02;100.00;98156.53;5000970;28;20048;-56
2023/01/11 00:31:15;;;;;;;52.42;5.75;;;;;;;5.81;100.00;98156.19;4999571;28;20041;-54
2023/01/11 00:33:41;;;;;;;53.72;5.90;;;;;;;5.88;100.00;98148.53;5000825;28;20030;-55
2023/01/11 00:36:06;;;;;;;51.80;5.97;;;;;;;5.60;100.00;98142.03;4999123;28;20402;-55
2023/01/11 00:38:50;;;;;;;39.20;5.38;;;;;;;5.68;100.00;98141.31;5000592;28;20170;-54
2023/01/11 00:49:29;;;;;;;54.58;5.45;;;;;;;5.67;100.00;98126.66;5000114;28;20037;-55
2023/01/11 00:51:54;;;;;;;46.88;4.68;;;;;;;5.32;100.00;98127.72;4999522;28;20030;-54
2023/01/11 00:54:20;;;;;;;51.67;6.20;;;;;;;5.33;100.00;98119.16;4999339;28;20034;-53
2023/01/11 00:56:45;;;;;;;41.97;5.22;;;;;;;5.51;100.00;98113.47;4999008;28;20147;-54
2023/01/11 00:59:11;;;;;;;48.08;5.00;;;;;;;5.40;100.00;98114.97;5000472;28;20030;-53
2023/01/11 01:01:36;;;;;;;49.58;4.47;;;;;;;5.31;100.00;98113.09;4999026;28;20029;-53
2023/01/11 01:04:02;;;;;;;39.42;5.03;;;;;;;5.49;100.00;98114.28;5000059;28;20144;-61
2023/01/11 01:06:28;;;;;;;54.38;6.13;;;;;;;5.60;100.00;98116.22;4997606;28;20096;-56
2023/01/11 01:08:54;;;;;;;43.33;5.50;;;;;;;5.62;100.00;98112.81;5000392;28;20717;-54
2023/01/11 01:11:19;;;;;;;53.00;5.63;;;;;;;5.49;100.00;98109.13;4998650;28;20077;-54
2023/01/11 01:16:31;;;;;;;42.08;5.00;;;;;;;5.60;100.00;98100.75;4997710;28;20077;-55
2023/01/11 01:18:57;;;;;;;39.72;5.38;;;;;;;5.66;100.00;98119.75;5000443;28;20029;-54
2023/01/11 01:21:23;;;;;;;39.40;4.53;;;;;;;5.11;100.00;98117.84;4998991;28;20436;-53
2023/01/11 01:23:52;;;;;;;62.80;6.78;;;;;;;5.57;100.00;98100.69;4999018;28;20037;-53
2023/01/11 01:26:17;;;;;;;49.15;5.60;;;;;;;5.55;100.00;98117.88;4998023;28;20044;-54
2023/01/11 01:28:43;;;;;;;60.45;6.43;;;;;;;5.38;100.00;98107.19;4999395;28;20042;-54
2023/01/11 01:31:08;;;;;;;65.50;6.75;;;;;;;5.43;100.00;98115.03;4998701;28;20041;-53
2023/01/11 01:33:33;;;;;;;36.50;4.95;;;;;;;5.17;100.00;98102.50;4999425;28;20832;-54
2023/01/11 01:36:03;;;;;;;49.08;5.68;;;;;;;5.15;100.00;98105.06;4997941;28;20041;-54
2023/01/11 01:38:28;;;;;;;48.08;4.93;;;;;;;5.16;100.00;98103.34;4998891;28;20018;-54
2023/01/11 01:40:55;;;;;;;57.97;7.20;;;;;;;5.57;100.00;98099.84;4998316;28;20581;-55
2023/01/11 01:43:22;;;;;;;61.75;6.53;;;;;;;5.27;100.00;98099.25;4999402;28;20552;-53
2023/01/11 01:45:51;;;;;;;50.88;5.32;;;;;;;5.00;100.00;98103.03;4998128;28;20037;-53
2023/01/11 01:48:20;;;;;;;48.03;6.05;;;;;;;5.16;100.00;98093.03;4998949;28;20530;-54
2023/01/11 01:50:58;;;;;;;49.30;4.80;;;;;;;5.38;100.00;98084.00;4998540;28;20072;-53
2023/01/11 01:53:30;;;;;;;57.00;6.50;;;;;;;5.24;100.00;98082.88;4999128;28;20084;-54
2023/01/11 01:55:59;;;;;;;43.88;4.97;;;;;;;5.06;100.00;98091.97;4998236;28;20060;-54
2023/01/11 01:58:30;;;;;;;39.80;6.03;;;;;;;5.44;100.00;98078.97;4999269;28;20026;-53
2023/01/11 02:00:56;;;;;;;45.13;5.63;;;;;;;5.39;100.00;98085.75;4998413;28;20037;-54
2023/01/11 02:03:25;;;;;;;58.67;6.97;;;;;;;5.30;100.00;98081.28;4998756;28;20028;-54
2023/01/11 02:05:52;;;;;;;50.22;6.53;;;;;;;5.56;100.00;98080.00;4997592;28;20045;-54
2023/01/11 02:08:33;;;;;;;61.03;6.97;;;;;;;5.83;100.00;98071.88;4998610;28;20589;-56
2023/01/11 02:10:59;;;;;;;61.70;7.10;;;;;;;5.85;100.00;98069.34;4997796;28;20569;-54
2023/01/11 02:13:25;;;;;;;48.38;6.57;;;;;;;6.28;100.00;98058.88;4999082;28;20018;-53
2023/01/11 02:16:06;;;;;;;46.47;6.25;;;;;;;5.78;100.00;98049.41;4997962;28;20438;-54
2023/01/11 02:18:34;;;;;;;50.45;6.50;;;;;;;6.02;100.00;98054.13;4998406;28;20037;-54
2023/01/11 02:21:24;;;;;;;57.67;6.82;;;;;;;6.05;100.00;98045.59;4998158;28;20026;-54
2023/01/11 02:23:50;;;;;;;50.60;6.50;;;;;;;6.04;100.00;98056.75;4998562;28;20029;-54
2023/01/11 02:26:37;;;;;;;44.95;6.05;;;;;;;5.41;100.00;98052.22;4997413;28;20052;-54
2023/01/11 02:29:24;;;;;;;42.75;5.63;;;;;;;5.40;100.00;98042.75;4998712;28;20116;-53
2023/01/11 02:31:58;;;;;;;46.90;5.68;;;;;;;5.38;100.00;98036.72;4997530;28;20124;-54
2023/01/11 02:34:41;;;;;;;50.22;6.68;;;;;;;5.42;100.00;98035.94;4998302;28;20037;-53
2023/01/11 02:37:31;;;;;;;40.92;5.97;;;;;;;5.52;100.00;98030.06;4997778;28;20125;-54
2023/01/11 02:40:06;;;;;;;49.67;5.90;;;;;;;5.56;100.00;98034.44;4998629;28;20562;-54
2023/01/11 02:46:09;;;;;;;56.03;7.10;;;;;;;5.94;100.00;98019.59;4997622;28;20064;-56
2023/01/11 02:48:55;;;;;;;43.83;6.15;;;;;;;6.26;100.00;98021.81;4998460;28;20276;-54
2023/01/11 02:51:41;;;;;;;49.80;7.25;;;;;;;6.14;100.00;98011.28;4996949;28;20077;-54
2023/01/11 02:54:10;;;;;;;40.60;6.45;;;;;;;6.41;100.00;98003.06;5013524;28;20030;-53
2023/01/11 02:56:40;;;;;;;41.22;6.47;;;;;;;6.31;100.00;98006.38;4996779;28;20108;-54
2023/01/11 02:59:10;;;;;;;47.80;7.18;;;;;;;5.84;100.00;98014.28;4998002;28;20040;-53
2023/01/11 03:01:54;;;;;;;41.45;6.05;;;;;;;5.38;100.00;98022.09;4997614;28;20331;-53
2023/01/11 03:04:34;;;;;;;55.75;6.85;;;;;;;5.74;100.00;98012.38;4998215;28;20589;-55
2023/01/11 03:07:27;;;;;;;60.90;7.05;;;;;;;5.24;100.00;98014.13;4996665;28;20099;-53
2023/01/11 03:10:30;;;;;;;43.40;6.88;;;;;;;5.63;100.00;98016.47;4998445;28;20029;-53
2023/01/11 03:13:04;;;;;;;55.65;7.35;;;;;;;5.91;100.00;98004.03;4997840;28;20042;-58
2023/01/11 03:15:33;;;;;;;54.28;6.95;;;;;;;5.68;100.00;98005.41;4997329;28;20045;-55
2023/01/11 03:18:01;;;;;;;52.10;6.70;;;;;;;5.73;100.00;98002.91;4997951;28;20057;-54
2023/01/11 03:20:34;;;;;;;52.55;7.78;;;;;;;5.79;100.00;98003.00;4998103;28;20022;-53
2023/01/11 03:23:02;;;;;;;34.28;5.18;;;;;;;5.42;100.00;97997.22;4997518;28;20657;-55
2023/01/11 03:25:54;;;;;;;43.10;4.72;;;;;;;5.56;100.00;98000.03;4997283;28;20072;-53
2023/01/11 03:28:38;;;;;;;;;;;;;;;5.96;100.00;97990.34;4979270;28;20419;-54
2023/01/11 03:31:22;;;;;;;58.33;7.38;;;;;;;5.57;100.00;97988.88;5000156;28;19932;-54
2023/01/11 03:34:09;;;;;;;46.28;6.65;;;;;;;5.81;100.00;97985.81;5001726;28;20135;-55
2023/01/11 03:36:50;;;;;;;52.50;7.47;;;;;;;5.93;100.00;97982.56;4999835;28;20034;-54
2023/01/11 03:39:21;;;;;;;50.30;7.22;;;;;;;5.97;100.00;97979.19;5001759;28;20057;-56
2023/01/11 03:41:49;;;;;;;46.97;7.13;;;;;;;6.01;100.00;97972.34;5000668;28;20038;-54
2023/01/11 03:44:18;;;;;;;43.38;7.20;;;;;;;6.20;100.00;97970.06;5001776;28;20034;-54
2023/01/11 03:46:47;;;;;;;48.28;6.97;;;;;;;6.34;100.00;97971.13;5000311;28;20402;-56
2023/01/11 03:49:22;;;;;;;49.53;7.22;;;;;;;6.09;100.00;97969.91;5000935;28;20221;-54
2023/01/11 03:51:49;;;;;;;51.55;7.80;;;;;;;6.06;100.00;97965.59;5000437;28;20104;-53
2023/01/11 03:54:20;;;;;;;47.47;7.85;;;;;;;6.20;100.00;97960.59;5000712;28;20030;-54
2023/01/11 03:57:09;;;;;;;48.20;7.25;;;;;;;6.30;100.00;97963.28;4999671;28;20136;-54
2023/01/11 03:59:34;;;;;;;64.32;8.68;;;;;;;6.08;100.00;97950.97;5000783;28;20297;-54
2023/01/11 04:02:01;;;;;;;45.00;6.57;;;;;;;6.40;100.00;97951.38;5000634;28;20034;-56
2023/01/11 04:04:27;;;;;;;52.47;7.47;;;;;;;6.54;100.00;97947.25;5000781;28;20553;-53
2023/01/11 04:06:52;;;;;;;58.58;6.85;;;;;;;6.22;100.00;97956.34;4998662;28;20045;-55
2023/01/11 04:09:17;;;;;;;42.35;6.60;;;;;;;6.32;100.00;97948.69;5000972;28;20021;-53
2023/01/11 04:11:43;;;;;;;55.13;7.90;;;;;;;6.00;100.00;97944.78;4998641;28;20045;-54
2023/01/11 04:14:09;;;;;;;46.63;7.38;;;;;;;6.49;100.00;97946.31;5001196;28;20060;-53
2023/01/11 04:16:34;;;;;;;55.33;8.10;;;;;;;6.18;100.00;97936.47;5000077;28;20910;-54
2023/01/11 04:19:01;;;;;;;60.50;8.35;;;;;;;6.40;100.00;97941.03;5000734;28;20037;-56
2023/01/11 04:21:27;;;;;;;51.83;8.10;;;;;;;6.28;100.00;97944.34;5000184;28;20935;-55
2023/01/11 04:23:52;;;;;;;67.28;8.90;;;;;;;6.24;100.00;97943.44;4999436;28;20535;-57
2023/01/11 04:26:18;;;;;;;46.22;6.90;;;;;;;6.29;100.00;97944.38;4999467;28;20133;-56
2023/01/11 04:28:43;;;;;;;53.10;5.97;;;;;;;6.03;100.00;97947.47;5000258;28;20046;-55
2023/01/11 04:31:09;;;;;;;69.78;8.57;;;;;;;6.60;100.00;97942.16;4999370;28;20042;-54
2023/01/11 04:33:35;;;;;;;50.60;7.25;;;;;;;6.45;100.00;97948.00;5000538;28;20355;-54
2023/01/11 04:36:06;;;;;;;49.40;6.45;;;;;;;6.43;100.00;97938.50;4999037;28;20042;-55
2023/01/11 04:38:32;;;;;;;42.85;6.65;;;;;;;6.30;100.00;97950.38;4982733;28;20022;-56
2023/01/11 04:42:17;;;;;;;58.13;7.80;;;;;;;6.26;100.00;97946.91;4999842;28;20034;-55
2023/01/11 04:43:43;;;;;;;48.95;6.82;;;;;;;6.45;100.00;97948.00;5000010;28;20124;-54
2023/01/11 04:46:09;;;;;;;56.25;6.80;;;;;;;6.17;100.00;97939.91;4998877;28;20703;-55
2023/01/11 04:48:39;;;;;;;51.33;7.70;;;;;;;6.35;100.00;97949.59;4999958;28;20491;-55
2023/01/11 04:51:08;;;;;;;49.42;6.82;;;;;;;6.28;100.00;97952.97;4999135;28;20042;-55
2023/01/11 04:53:34;;;;;;;43.75;7.60;;;;;;;5.83;100.00;97957.47;5000303;28;20057;-56
2023/01/11 04:56:05;;;;;;;48.88;7.05;;;;;;;6.38;100.00;97952.22;4999029;28;20125;-55
2023/01/11 04:58:31;;;;;;;49.05;5.30;;;;;;;6.33;100.00;97956.47;4999725;28;20391;-55
2023/01/11 05:00:57;;;;;;;47.58;8.00;;;;;;;6.61;100.00;97940.44;4999354;28;20030;-56
2023/01/11 05:03:22;;;;;;;59.05;8.63;;;;;;;6.50;100.00;97942.91;4998995;28;20037;-56
2023/01/11 05:05:56;;;;;;;49.17;7.55;;;;;;;6.69;100.00;97935.34;4998558;28;20798;-54
2023/01/11 05:08:22;;;;;;;53.58;6.68;;;;;;;6.80;100.00;97933.78;4998315;28;20022;-55
2023/01/11 05:11:07;;;;;;;47.08;6.40;;;;;;;6.99;100.00;97939.13;4999239;28;20034;-55
2023/01/11 05:13:42;;;;;;;55.78;6.95;;;;;;;7.18;100.00;97936.72;4999627;28;20109;-56
2023/01/11 05:16:12;;;;;;;40.97;6.60;;;;;;;7.10;100.00;97932.34;4998479;28;20046;-56
2023/01/11 05:18:42;;;;;;;38.70;6.00;;;;;;;6.94;100.00;97930.47;4999831;28;20032;-54
2023/01/11 05:21:08;;;;;;;48.10;6.65;;;;;;;7.00;100.00;97917.56;4999009;28;20240;-57
2023/01/11 05:23:35;;;;;;;50.08;6.80;;;;;;;6.58;100.00;97917.16;4999613;28;20108;-55
2023/01/11 05:26:03;;;;;;;44.22;6.50;;;;;;;6.53;100.00;97929.16;4998627;28;20069;-55
2023/01/11 05:28:29;;;;;;;48.63;5.78;;;;;;;6.04;100.00;97920.78;4999021;28;20037;-55
2023/01/11 05:30:54;;;;;;;48.83;6.80;;;;;;;6.47;100.00;97917.91;4998501;28;20712;-55
2023/01/11 05:33:20;;;;;;;44.78;6.40;;;;;;;6.92;100.00;97916.63;4999126;28;20026;-54
2023/01/11 05:35:46;;;;;;;58.33;7.40;;;;;;;7.16;100.00;97906.53;4997843;28;20596;-56
2023/01/11 05:38:11;;;;;;;37.17;6.05;;;;;;;6.70;100.00;97912.13;5000040;28;20058;-56
2023/01/11 05:40:36;;;;;;;40.28;5.55;;;;;;;6.61;100.00;97897.34;4998885;28;20037;-56
2023/01/11 05:43:03;;;;;;;48.83;7.18;;;;;;;6.31;100.00;97893.56;4998812;28;20014;-56
2023/01/11 05:45:28;;;;;;;40.60;6.10;;;;;;;6.75;100.00;97896.63;4998314;28;20366;-57
2023/01/11 05:47:54;;;;;;;44.55;6.13;;;;;;;6.91;100.00;97889.94;4999724;28;20736;-56
2023/01/11 05:50:19;;;;;;;45.55;5.05;;;;;;;6.50;100.00;97886.06;4999023;28;20032;-57
2023/01/11 05:52:45;;;;;;;36.67;5.32;;;;;;;6.86;100.00;97892.47;4998953;28;20026;-56
2023/01/11 05:55:10;;;;;;;75.30;7.60;;;;;;;6.65;100.00;97877.59;4998130;28;20372;-54
2023/01/11 05:57:35;;;;;;;33.67;5.00;;;;;;;6.70;100.00;97872.47;4999405;28;20025;-55
2023/01/11 06:00:02;;;;;;;49.63;6.72;;;;;;;6.72;100.00;97881.13;4998676;28;20026;-55
2023/01/11 06:02:28;;;;;;;40.30;5.50;;;;;;;6.84;100.00;97878.66;4998299;28;20060;-55
2023/01/11 06:04:53;;;;;;;39.20;5.65;;;;;;;6.93;100.00;97875.28;4999166;28;20407;-55
2023/01/11 06:07:18;;;;;;;51.75;6.20;;;;;;;6.95;100.00;97873.59;4997272;28;20038;-56
2023/01/11 06:09:44;;;;;;;42.40;5.47;;;;;;;6.65;100.00;97875.03;4999323;28;20037;-54
2023/01/11 06:12:09;;;;;;;57.45;7.00;;;;;;;6.38;100.00;97887.63;4997972;28;20395;-55
2023/01/11 06:14:35;;;;;;;30.33;4.82;;;;;;;6.77;100.00;97887.19;4999533;28;20103;-57
2023/01/11 06:17:01;;;;;;;43.38;5.53;;;;;;;6.88;100.00;97874.38;4996713;28;20494;-55
2023/01/11 06:19:26;;;;;;;45.75;5.20;;;;;;;6.53;100.00;97873.16;4998866;28;20033;-55
2023/01/11 06:21:51;;;;;;;33.22;5.05;;;;;;;7.01;100.00;97867.59;4998494;28;20044;-54
2023/01/11 06:24:17;;;;;;;48.40;6.20;;;;;;;7.01;100.00;97865.88;4998719;28;20026;-56
2023/01/11 06:26:42;;;;;;;44.90;4.57;;;;;;;6.52;100.00;97868.84;4997773;28;20054;-55
2023/01/11 06:29:08;;;;;;;38.92;4.97;;;;;;;6.60;100.00;97874.97;4999122;28;20025;-55
2023/01/11 06:31:33;;;;;;;54.95;5.45;;;;;;;6.71;100.00;97869.03;4997657;28;20041;-56
2023/01/11 06:33:58;;;;;;;39.83;4.90;;;;;;;6.84;100.00;97870.91;4999145;28;20491;-56
2023/01/11 06:36:24;;;;;;;49.30;5.95;;;;;;;7.43;100.00;97873.97;4993402;28;20464;-56
2023/01/11 06:38:51;;;;;;;51.53;6.10;;;;;;;7.23;100.00;97879.00;4997230;28;20057;-55
2023/01/11 06:41:16;;;;;;;43.78;5.90;;;;;;;6.86;100.00;97878.66;4998064;28;20111;-54
2023/01/11 06:43:42;;;;;;;62.20;6.93;;;;;;;7.00;100.00;97878.78;4998540;28;20112;-55
2023/01/11 06:46:15;;;;;;;52.58;6.15;;;;;;;6.12;100.00;97875.28;4997358;28;20514;-55
2023/01/11 06:48:41;;;;;;;53.78;5.97;;;;;;;6.45;100.00;97880.81;4998120;28;20093;-54
2023/01/11 06:51:09;;;;;;;54.35;7.38;;;;;;;6.91;100.00;97879.59;4997894;28;20045;-56
2023/01/11 06:53:35;;;;;;;65.95;8.48;;;;;;;7.06;100.00;97877.97;4998797;28;20034;-54
2023/01/11 06:56:00;;;;;;;44.58;6.47;;;;;;;8.04;100.00;97873.47;4997391;28;20042;-53
2023/01/11 06:58:26;;;;;;;67.30;11.25;;;;;;;9.47;100.00;97871.19;4998521;28;20026;-54
2023/01/11 07:00:53;;;;;;;59.45;7.85;;;;;;;8.63;100.00;97871.16;4997287;28;20779;-54
2023/01/11 07:03:19;;;;;;;50.20;6.90;;;;;;;8.29;100.00;97869.28;4998570;28;20026;-56
2023/01/11 07:05:45;;;;;;;44.30;5.07;;;;;;;8.58;100.00;97872.88;5014320;28;20038;-53
2023/01/11 07:08:11;;;;;;;43.47;5.70;;;;;;;9.20;100.00;97864.28;5002295;28;20502;-55
2023/01/11 07:10:37;;;;;;;46.65;5.78;;;;;;;7.90;100.00;97866.50;5001765;28;20069;-56
2023/01/11 07:13:03;;;;;;;53.72;6.15;;;;;;;7.95;100.00;97863.94;4999312;28;20527;-54
2023/01/11 07:15:28;;;;;;;46.75;5.57;;;;;;;7.74;100.00;97862.97;4999152;28;20677;-54
2023/01/11 07:17:55;;;;;;;53.90;6.25;;;;;;;7.84;100.00;97869.06;4999815;28;20117;-53
2023/01/11 07:20:22;;;;;;;40.15;5.03;;;;;;;7.68;100.00;97868.97;5000948;28;20044;-55
2023/01/11 07:22:47;;;;;;;31.92;4.45;;;;;;;7.89;100.00;97862.19;5000712;28;20676;-53
2023/01/11 07:25:13;;;;;;;60.50;6.20;;;;;;;7.65;100.00;97868.94;5000469;28;20643;-54
2023/01/11 07:27:38;;;;;;;40.78;4.90;;;;;;;7.48;100.00;97863.66;5001887;28;20030;-54
2023/01/11 07:30:04;;;;;;;36.10;4.75;;;;;;;7.63;100.00;97854.25;5001862;28;20030;-54
2023/01/11 07:32:29;;;;;;;38.42;4.63;;;;;;;7.59;100.00;97848.22;5000894;28;20045;-57
2023/01/11 07:34:55;;;;;;;39.88;5.07;;;;;;;7.64;100.00;97850.81;5001471;28;20038;-55
2023/01/11 07:37:21;;;;;;;52.70;5.75;;;;;;;7.76;100.00;97844.84;4999705;28;20507;-56
2023/01/11 07:39:46;;;;;;;39.97;4.80;;;;;;;7.72;100.00;97838.78;5002066;28;20018;-53
2023/01/11 07:44:56;;;;;;;37.38;4.53;;;;;;;7.62;100.00;97837.00;5001514;28;20095;-54
2023/01/11 07:47:22;;;;;;;53.38;5.65;;;;;;;7.78;100.00;97835.38;5000655;28;20026;-55
2023/01/11 07:49:47;;;;;;;40.40;4.78;;;;;;;7.98;100.00;97844.97;5001759;28;20029;-54
2023/01/11 07:52:12;;;;;;;44.35;5.30;;;;;;;7.94;100.00;97838.88;4995138;28;20125;-54
2023/01/11 07:54:38;;;;;;;42.00;4.85;;;;;;;8.20;100.00;97833.81;5002001;28;20368;-56
2023/01/11 07:57:03;;;;;;;41.85;4.78;;;;;;;7.55;100.00;97846.47;5000355;28;20034;-54
2023/01/11 07:59:29;;;;;;;56.45;6.13;;;;;;;7.69;100.00;97849.97;5001285;28;20392;-56
2023/01/11 08:01:54;;;;;;;39.28;4.80;;;;;;;8.07;100.00;97840.69;5000708;28;20038;-54
2023/01/11 08:04:21;;;;;;;46.08;5.30;;;;;;;7.97;100.00;97835.47;4995624;28;20063;-55
2023/01/11 08:06:46;;;;;;;44.95;4.80;;;;;;;7.60;100.00;97847.34;5000044;28;20045;-55
2023/01/11 08:09:12;;;;;;;41.40;4.88;;;;;;;7.94;100.00;97836.31;5001837;28;20022;-54
2023/01/11 08:14:39;;;;;;;30.92;3.97;;;;;;;8.12;100.00;97843.28;5001249;28;20660;-56
2023/01/11 08:17:13;;;;;;;42.17;4.90;;;;;;;7.99;100.00;97829.44;4999076;28;20199;-56
2023/01/11 08:19:39;;;;;;;47.55;5.10;;;;;;;8.15;100.00;97834.66;5001377;28;20021;-54
2023/01/11 08:22:04;;;;;;;40.47;4.55;;;;;;;8.16;100.00;97826.03;5000671;28;20111;-54
2023/01/11 08:24:30;;;;;;;43.47;4.90;;;;;;;8.15;100.00;97829.50;5000248;28;20085;-56
2023/01/11 08:26:55;;;;;;;53.25;5.82;;;;;;;8.36;100.00;97826.13;4998812;28;20164;-55
2023/01/11 08:29:21;;;;;;;41.22;4.85;;;;;;;8.53;100.00;97817.53;5000369;28;20057;-55
2023/01/11 08:31:47;;;;;;;43.55;4.88;;;;;;;8.75;100.00;97815.00;4999581;28;20037;-53
2023/01/11 08:34:12;;;;;;;33.35;4.28;;;;;;;8.53;100.00;97814.94;5000655;28;20021;-56
2023/01/11 08:36:38;;;;;;;38.33;4.03;;;;;;;8.76;100.00;97827.94;4998616;28;20069;-55
2023/01/11 08:39:03;;;;;;;50.30;5.75;;;;;;;8.71;100.00;97817.59;4999981;28;20408;-56
2023/01/11 08:41:31;;;;;;;37.50;5.07;;;;;;;8.49;100.00;97815.78;4999244;28;20519;-56
2023/01/11 08:43:57;;;;;;;47.47;5.20;;;;;;;8.91;100.00;97808.09;4999810;28;20025;-56
2023/01/11 08:46:23;;;;;;;37.60;4.63;;;;;;;8.99;100.00;97802.03;4998699;28;20271;-55
2023/01/11 08:48:49;;;;;;;33.95;4.28;;;;;;;8.89;100.00;97805.50;4999765;28;20103;-54
2023/01/11 08:51:14;;;;;;;47.20;5.35;;;;;;;8.93;100.00;97812.41;4998844;28;20462;-54
2023/01/11 08:53:40;;;;;;;31.40;3.45;;;;;;;8.98;100.00;97815.88;5000360;28;20022;-55
2023/01/11 08:56:06;;;;;;;45.08;4.80;;;;;;;8.88;100.00;97818.44;4998622;28;20034;-54
2023/01/11 08:58:32;;;;;;;30.13;3.95;;;;;;;8.79;100.00;97824.47;4999937;28;20055;-54
2023/01/11 09:01:01;;;;;;;33.63;4.03;;;;;;;9.13;100.00;97827.09;4981176;28;20041;-55
2023/01/11 09:03:27;;;;;;;44.00;4.88;;;;;;;8.96;100.00;97821.91;4999330;28;21052;-54
2023/01/11 09:05:55;;;;;;;33.25;3.92;;;;;;;8.87;100.00;97829.69;4998028;28;20038;-56
2023/01/11 09:08:21;;;;;;;52.47;5.55;;;;;;;9.16;100.00;97819.31;4999582;28;20072;-57
2023/01/11 09:10:46;;;;;;;46.22;4.65;;;;;;;9.17;100.00;97813.25;4999258;28;20460;-56
2023/01/11 09:13:12;;;;;;;33.47;3.97;;;;;;;9.57;100.00;97814.94;4998888;28;20844;-56
2023/01/11 09:15:37;;;;;;;35.97;4.13;;;;;;;9.04;100.00;97809.81;4997605;28;20048;-57
2023/01/11 09:18:03;;;;;;;31.83;3.70;;;;;;;8.81;100.00;97818.47;4999354;28;20034;-57
2023/01/11 09:20:29;;;;;;;49.03;5.22;;;;;;;8.93;100.00;97827.09;4998512;28;20060;-57
2023/01/11 09:22:55;;;;;;;41.03;4.53;;;;;;;8.77;100.00;97816.72;4998935;28;20764;-57
2023/01/11 09:25:21;;;;;;;43.60;4.90;;;;;;;8.84;100.00;97822.78;4998155;28;20029;-55
2023/01/11 09:27:48;;;;;;;39.95;4.97;;;;;;;8.63;100.00;97823.59;4998278;28;20116;-56
2023/01/11 09:30:19;;;;;;;37.17;4.75;;;;;;;8.52;100.00;97815.78;4998756;28;20022;-55
2023/01/11 09:32:46;;;;;;;45.95;5.00;;;;;;;8.47;100.00;97811.44;4998886;28;20022;-58
2023/01/11 09:35:13;;;;;;;52.45;5.95;;;;;;;9.04;100.00;97820.19;4998304;28;20034;-55
2023/01/11 09:37:40;;;;;;;42.08;5.38;;;;;;;8.96;100.00;97822.78;4998479;28;20022;-57
2023/01/11 09:40:13;;;;;;;35.65;4.30;;;;;;;9.94;100.00;97808.78;4998878;28;20025;-55
2023/01/11 09:42:39;;;;;;;41.20;4.75;;;;;;;9.54;100.00;97820.13;4998428;28;20423;-57
2023/01/11 09:45:11;;;;;;;63.65;6.15;;;;;;;9.85;100.00;97820.09;4997301;28;20030;-57
2023/01/11 09:47:59;;;;;;;33.35;3.95;;;;;;;9.57;100.00;97817.53;4999298;28;20026;-56
2023/01/11 09:50:29;;;;;;;39.60;4.43;;;;;;;9.83;100.00;97813.16;4998191;28;20405;-55
2023/01/11 09:52:58;;;;;;;51.28;5.20;;;;;;;9.70;100.00;97808.00;4997981;28;20491;-55
2023/01/11 09:55:38;;;;;;;46.63;4.80;;;;;;;10.03;100.00;97807.88;4997961;28;20553;-57
2023/01/11 09:58:38;;;;;;;49.92;5.20;;;;;;;9.74;100.00;97811.44;4998994;28;20605;-56
2023/01/11 10:01:34;;;;;;;50.83;5.13;;;;;;;9.58;100.00;97802.84;4998514;28;20042;-55
2023/01/11 10:04:31;;;;;;;47.25;4.90;;;;;;;9.97;100.00;97797.50;4998667;28;20095;-56
2023/01/11 10:07:23;;;;;;;43.70;4.65;;;;;;;10.22;100.00;97789.59;4997293;28;20041;-55
2023/01/11 10:10:20;;;;;;;32.72;4.20;;;;;;;9.70;100.00;97784.63;4999083;28;20385;-55
2023/01/11 10:13:03;;;;;;;30.55;3.83;;;;;;;9.67;100.00;97784.63;4998554;28;20042;-55
2023/01/11 10:15:39;;;;;;;;;;;;;;;9.62;100.00;97776.00;4997754;28;20123;-55
2023/01/11 10:18:24;;;;;;;42.70;4.43;;;;;;;9.84;100.00;97766.38;4998484;28;20583;-56
2023/01/11 10:21:00;;;;;;;34.85;4.28;;;;;;;9.44;100.00;97759.59;4998354;28;20037;-57
2023/01/11 10:23:40;;;;;;;49.28;5.18;;;;;;;9.49;100.00;97762.16;4998585;28;20045;-55
2023/01/11 10:26:22;;;;;;;37.42;4.20;;;;;;;9.37;100.00;97765.66;4997456;28;20125;-55
2023/01/11 10:29:16;;;;;;;40.42;4.25;;;;;;;9.42;100.00;97766.50;4997135;28;20069;-55
2023/01/11 10:34:41;;;;;;;47.85;5.13;;;;;;;9.51;100.00;97763.88;4997087;28;20029;-55
2023/01/11 10:37:34;;;;;;;39.55;4.63;;;;;;;10.04;100.00;97757.63;4997447;28;20777;-56
2023/01/11 10:42:51;;;;;;;47.40;6.18;;;;;;;9.74;100.00;97746.50;5000954;28;20038;-56
2023/01/11 10:45:24;;;;;;;49.88;6.18;;;;;;;9.81;100.00;97747.34;4995883;28;20066;-57
2023/01/11 10:48:13;;;;;;;42.30;5.28;;;;;;;9.98;100.00;97721.31;5002788;28;20018;-55
2023/01/11 10:51:02;;;;;;;50.63;5.35;;;;;;;10.13;100.00;97723.81;5000284;28;20057;-55
2023/01/11 10:53:42;;;;;;;45.65;5.00;;;;;;;10.22;100.00;97725.50;5001833;28;20031;-55
2023/01/11 10:56:26;;;;;;;34.22;4.22;;;;;;;9.85;100.00;97726.56;5001469;28;20042;-56
2023/01/11 10:59:10;;;;;;;41.22;5.18;;;;;;;9.99;100.00;97718.69;5002304;28;20599;-57
2023/01/11 11:01:49;;;;;;;48.97;5.25;;;;;;;9.71;100.00;97734.41;5000754;28;20490;-56
2023/01/11 11:04:41;;;;;;;34.55;4.32;;;;;;;9.80;100.00;97737.84;5002172;28;20026;-56
2023/01/11 11:07:12;;;;;;;39.50;4.40;;;;;;;9.63;100.00;97730.97;5001327;28;20131;-55
2023/01/11 11:09:47;;;;;;;37.55;4.40;;;;;;;9.76;100.00;97731.78;5002307;28;20068;-56
2023/01/11 11:12:36;;;;;;;37.40;4.60;;;;;;;10.02;100.00;97726.47;5001606;28;20133;-56
2023/01/11 11:15:19;;;;;;;50.17;6.00;;;;;;;9.93;100.00;97726.53;5001280;28;20414;-54
2023/01/11 11:17:49;;;;;;;39.75;4.93;;;;;;;10.30;100.00;97728.03;5001960;28;20057;-55
2023/01/11 11:20:20;;;;;;;39.88;5.07;;;;;;;9.94;100.00;97723.03;5001825;28;20026;-55
2023/01/11 11:22:48;;;;;;;43.17;5.07;;;;;;;10.16;100.00;97716.00;5001247;28;20025;-55
2023/01/11 11:25:36;;;;;;;69.43;6.90;;;;;;;10.04;100.00;97710.88;5000644;28;20517;-55
2023/01/11 11:28:13;;;;;;;40.67;4.88;;;;;;;10.16;100.00;97705.59;5001521;28;20030;-56
2023/01/11 11:30:42;;;;;;;43.22;5.30;;;;;;;10.17;100.00;97709.03;5001325;28;20120;-56
2023/01/11 11:33:20;;;;;;;52.15;6.28;;;;;;;10.35;100.00;97708.06;5001738;28;20030;-55
2023/01/11 11:35:55;;;;;;;31.27;4.70;;;;;;;10.44;100.00;97706.28;5000256;28;20104;-55
2023/01/11 11:38:23;;;;;;;34.83;4.65;;;;;;;10.31;100.00;97708.97;5006811;28;20032;-55
2023/01/11 11:41:18;;;;;;;42.13;5.10;;;;;;;10.49;100.00;97705.41;4999920;28;20167;-55
2023/01/11 11:43:45;;;;;;;45.53;5.85;;;;;;;10.35;100.00;97696.84;4999517;28;20029;-57
2023/01/11 11:46:13;;;;;;;41.38;5.25;;;;;;;9.84;100.00;97695.41;4999057;28;20519;-55
2023/01/11 11:48:43;;;;;;;31.08;4.50;;;;;;;9.36;100.00;97688.69;5001685;28;20030;-55
2023/01/11 11:51:28;;;;;;;52.00;6.40;;;;;;;9.64;100.00;97689.44;4999101;28;20712;-55
2023/01/11 11:53:55;;;;;;;38.65;5.82;;;;;;;9.59;100.00;97685.13;5000743;28;20048;-55
2023/01/11 11:56:31;;;;;;;43.67;6.10;;;;;;;9.83;100.00;97684.13;4999609;28;20030;-53
2023/01/11 11:59:03;;;;;;;44.95;6.50;;;;;;;9.81;100.00;97680.69;5001643;28;20084;-54
2023/01/11 12:01:32;;;;;;;55.85;8.05;;;;;;;9.68;100.00;97671.25;4999998;28;20033;-55
2023/01/11 12:04:20;;;;;;;44.05;6.63;;;;;;;9.73;100.00;97679.88;5001464;28;20157;-55
2023/01/11 12:07:02;;;;;;;37.28;5.32;;;;;;;9.67;100.00;97669.50;4999783;28;20530;-54